Overview Statistics Trail Chart Weather Telemetry Raw packets
 

This is the latest recevied weather packets stored in our database for station/object W1RCP. If no packets are shown the sender has not sent any weather packets the latest 10 day(s).

<< 1 2 3 4 5 >>
Time Temp. Humidity Pressure Rain* Wind** Luminosity Snow
1788619107 29.44° C 75% 1026.4 hPa 0 mm - 345 W/m² -
1788618802 28.89° C 80% 1026.5 hPa 0 mm - 580 W/m² -
1788618501 28.89° C 76% 1026.6 hPa 0 mm - 634 W/m² -
1788618195 28.89° C 77% 1026.5 hPa 0 mm - 139 W/m² -
1788617892 28.33° C 80% 1026.4 hPa 0 mm - 514 W/m² -
1788617587 28.33° C 81% 1026.5 hPa 0 mm - 505 W/m² -
1788617297 27.78° C 81% 1026.5 hPa 0 mm - 459 W/m² -
1788616982 27.22° C 83% 1026.4 hPa 0 mm - 458 W/m² -
1788616681 27.22° C 83% 1026.3 hPa 0 mm - 205 W/m² -
1788616377 27.22° C 84% 1026.4 hPa 0 mm - 220 W/m² -
1788616078 26.67° C 85% 1026.5 hPa 0 mm - 223 W/m² -
1788615776 26.67° C 85% 1026.5 hPa 0 mm - 342 W/m² -
1788615471 27.78° C 82% 1026.6 hPa 0 mm - 186 W/m² -
1788615167 26.67° C 86% 1026.7 hPa 0 mm - 247 W/m² -
1788614865 26.67° C 86% 1026.7 hPa 0 mm - 390 W/m² -
1788614562 26.11° C 87% 1026.7 hPa 0 mm - 124 W/m² -
1788614256 26.11° C 87% 1026.5 hPa 0 mm - 167 W/m² -
1788613952 26.67° C 85% 1026.7 hPa 0 mm - 219 W/m² -
1788613652 26.67° C 84% 1026.5 hPa 0 mm - 163 W/m² -
1788613351 26.11° C 86% 1026.3 hPa 0 mm - 124 W/m² -
1788613046 26.11° C 87% 1026.3 hPa 0 mm - 114 W/m² -
1788612741 25.56° C 88% 1026.5 hPa 0 mm - 107 W/m² -
1788612438 25.56° C 89% 1026.5 hPa 0 mm - 87 W/m² -
1788612134 25.56° C 90% 1026.5 hPa 0 mm - 100 W/m² -
1788611828 25° C 92% 1026.5 hPa 0 mm - 101 W/m² -

* Rain latest hour (hover to see other rain measurements)
** Current wind speed in m/s (hover to see current wind gust speed)